Apalachicola, FL

4:17 AM EST on March 04, 2015 (GMT -0500)
Franklin County Seafood Workers Task Force Apalachicola Office | Change Station
CLOSE
Current Station
Personal Weather Station
Location: Apalachicola, FL
Elevation: 43 ft
Nearby Weather Stations
Active Advisory: Dense Fog Advisory

Elev 43 ft 29.73 °N, 85.00 °W | Updated 8 minutes ago

Fog
Fog
62.8 °F
Feels Like 62.8 °F
N
1.7
Wind Variable Wind from ESE

Today
High -- | Low -- °F
--% Chance of Precip.
Yesterday
High -- | Low -- °F
Precip. -- in
7:02 AM 6:41 PM
Waxing Gibbous, 98% visible
Pressure 30.06 in
Visibility 0.2 miles
Clouds
Dew Point 62 °F
Humidity 99%
Rainfall 0.00 in
Snow Depth Not available.
UV Not available.
Pollen 8.40 out of 12
Air Quality Not available.
Flu Activity Not available.
METAR KAAF 040853Z AUTO 13004KT 1/4SM FG VV002 19/17 A3006 RMK AO2 SLP179 T01890172 58008

More Conditions Fewer Conditions

Pressure 30.06 in
Visibility 0.2 miles
Clouds
Dew Point 62 °F
Humidity 99%
Rainfall 0.00 in
Snow Depth Not available.
UV Not available.
Pollen 8.40 out of 12
Air Quality Not available.
Flu Activity Not available.
METAR KAAF 040853Z AUTO 13004KT 1/4SM FG VV002 19/17 A3006 RMK AO2 SLP179 T01890172 58008

More Conditions Fewer Conditions

10-Day Weather Forecast

Almanac

Astronomy

Mar. 04, 2015 Rise Set
Actual Time
Civil Twilight
Nautical Twilight
Astronomical Twilight
Moon
Length of Visible Light
Length of Day
Tomorrow will be .
, % of the Moon is Illuminated

Today's Extremes

State Highs State Lows

Community

WunderPhotos

Upload Photos

1,802,418 photos uploaded!

WunderBlogs® & News

Nearby

Air Quality

  Air Quality AQ Index Pollutant
Not available.

Snow Depth

Station Depth Elevation

Earthquake Activity

City Distance Mag. Time & Date
Minimum magnitude displayed is 2.5.

Coastal Water Temperatures

Place Temperature

Nearby Weather Stations

Dense Fog Advisory
Statement as of 2:10 AM CST on March 04, 2015

... Dense fog advisory in effect until 9 am EST /8 am CST/ this
morning...

The National Weather Service in Tallahassee has issued a dense
fog advisory... which is in effect until 9 am EST /8 am CST/ this
morning.

* Visibility... one quarter mile or less

* impacts... dense fog will create low visibilities during the
morning commute.

Precautionary/preparedness actions...

A dense fog advisory means visibilities will frequently be
reduced to less than one quarter mile. If driving... slow down...
use your low beam headlights... and leave plenty of distance ahead
of you.